createdAt,value
2022-10-02T00:00:36.172Z,63.95
2022-10-02T00:01:36.185Z,63.95
2022-10-02T00:02:36.125Z,63.95
2022-10-02T00:03:36.106Z,63.95
2022-10-02T00:04:36.173Z,63.95
2022-10-02T00:05:36.079Z,63.95
2022-10-02T00:06:36.404Z,63.98
2022-10-02T00:07:36.053Z,63.98
2022-10-02T00:08:36.045Z,64.08
2022-10-02T00:09:36.028Z,63.98
2022-10-02T00:10:36.015Z,63.95
2022-10-02T00:11:36.002Z,63.98
2022-10-02T00:12:35.989Z,64.08
2022-10-02T00:13:35.973Z,63.95
2022-10-02T00:14:35.962Z,63.95
2022-10-02T00:15:35.949Z,63.95
2022-10-02T00:16:36.332Z,63.98
2022-10-02T00:17:35.921Z,63.95
2022-10-02T00:18:35.909Z,63.95
2022-10-02T00:19:35.894Z,63.95
2022-10-02T00:20:35.883Z,63.95
2022-10-02T00:21:35.874Z,63.95
2022-10-02T00:22:35.855Z,63.95
2022-10-02T00:23:35.841Z,63.95
2022-10-02T00:24:35.832Z,63.95
2022-10-02T00:25:35.815Z,63.95
2022-10-02T00:26:36.029Z,63.95
2022-10-02T00:27:35.789Z,63.95
2022-10-02T00:28:35.782Z,63.85
2022-10-02T00:29:35.762Z,63.85
2022-10-02T00:30:35.751Z,63.95
2022-10-02T00:31:35.786Z,63.95
2022-10-02T00:32:35.752Z,63.98
2022-10-02T00:33:35.711Z,63.95
2022-10-02T00:34:35.698Z,63.95
2022-10-02T00:35:35.684Z,63.98
2022-10-02T00:36:36.066Z,63.95
2022-10-02T00:37:35.660Z,63.98
2022-10-02T00:38:35.646Z,63.98
2022-10-02T00:39:35.631Z,63.98
2022-10-02T00:40:35.623Z,63.98
2022-10-02T00:41:35.609Z,63.98
2022-10-02T00:42:35.594Z,63.98
2022-10-02T00:43:35.583Z,63.95
2022-10-02T00:44:35.569Z,63.95
2022-10-02T00:45:35.593Z,63.98
2022-10-02T00:46:35.819Z,63.98
2022-10-02T00:47:35.526Z,63.98
2022-10-02T00:48:35.549Z,63.98
2022-10-02T00:49:35.500Z,63.98
2022-10-02T00:50:35.488Z,63.98
2022-10-02T00:51:35.475Z,63.98
2022-10-02T00:52:35.462Z,63.98
2022-10-02T00:53:35.445Z,63.98
2022-10-02T00:54:35.441Z,63.98
2022-10-02T00:55:35.421Z,63.98
2022-10-02T00:56:35.703Z,63.98
2022-10-02T00:57:35.395Z,63.98
2022-10-02T00:58:35.381Z,63.98
2022-10-02T00:59:35.366Z,63.98
2022-10-02T01:00:35.379Z,63.98
2022-10-02T01:01:35.349Z,63.98
2022-10-02T01:02:35.329Z,63.98
2022-10-02T01:03:35.314Z,63.98
2022-10-02T01:04:35.327Z,63.98
2022-10-02T01:05:35.287Z,63.98
2022-10-02T01:06:35.642Z,63.98
2022-10-02T01:07:35.259Z,64.08
2022-10-02T01:08:35.249Z,64.08
2022-10-02T01:09:35.235Z,64.08
2022-10-02T01:10:35.222Z,64.08
2022-10-02T01:11:35.214Z,64.08
2022-10-02T01:12:35.197Z,64.08
2022-10-02T01:13:35.181Z,64.08
2022-10-02T01:14:35.170Z,64.08
2022-10-02T01:15:35.155Z,64.08
2022-10-02T01:16:35.512Z,64.08
2022-10-02T01:17:35.130Z,64.08
2022-10-02T01:18:35.117Z,64.08
2022-10-02T01:19:35.101Z,64.08
2022-10-02T01:20:35.120Z,64.08
2022-10-02T01:21:35.075Z,64.08
2022-10-02T01:22:35.064Z,64.08
2022-10-02T01:23:35.049Z,64.08
2022-10-02T01:24:35.041Z,64.08
2022-10-02T01:25:35.022Z,64.08
2022-10-02T01:26:35.286Z,64.08
2022-10-02T01:27:38.979Z,64.08
2022-10-02T01:28:34.990Z,64.08
2022-10-02T01:29:34.972Z,64.08
2022-10-02T01:30:34.959Z,64.08
2022-10-02T01:31:35.021Z,64.08
2022-10-02T01:32:34.933Z,64.08
2022-10-02T01:33:34.918Z,64.08
2022-10-02T01:34:34.907Z,64.08
2022-10-02T01:35:34.890Z,64.08
2022-10-02T01:36:35.246Z,64.08
2022-10-02T01:37:34.867Z,64.18
2022-10-02T01:38:34.853Z,64.18
2022-10-02T01:39:34.841Z,64.18
2022-10-02T01:40:34.827Z,64.18
2022-10-02T01:41:34.812Z,64.18
2022-10-02T01:42:34.800Z,64.18
2022-10-02T01:43:34.785Z,64.18
2022-10-02T01:44:34.775Z,64.18
2022-10-02T01:45:34.824Z,64.18
2022-10-02T01:46:34.991Z,64.18
2022-10-02T01:47:34.733Z,64.18
2022-10-02T01:48:34.721Z,64.18
2022-10-02T01:49:34.705Z,64.18
2022-10-02T01:50:34.693Z,64.18
2022-10-02T01:51:34.680Z,64.18
2022-10-02T01:52:34.694Z,64.18
2022-10-02T01:53:34.653Z,64.18
2022-10-02T01:54:34.642Z,64.18
2022-10-02T01:55:34.626Z,64.18
2022-10-02T01:56:34.994Z,64.18
2022-10-02T01:57:34.602Z,64.18
2022-10-02T01:58:34.589Z,64.18
2022-10-02T01:59:34.574Z,64.18
2022-10-02T02:00:34.562Z,64.18
2022-10-02T02:01:34.647Z,64.08
2022-10-02T02:02:34.618Z,64.18
2022-10-02T02:03:34.521Z,64.18
2022-10-02T02:04:34.508Z,64.18
2022-10-02T02:05:34.496Z,64.18
2022-10-02T02:06:34.804Z,64.18
2022-10-02T02:07:34.470Z,64.18
2022-10-02T02:08:34.489Z,64.18
2022-10-02T02:09:34.450Z,64.18
2022-10-02T02:10:34.430Z,64.18
2022-10-02T02:11:34.416Z,64.18
2022-10-02T02:12:34.403Z,64.18
2022-10-02T02:13:34.389Z,64.18
2022-10-02T02:14:34.383Z,64.18
2022-10-02T02:15:34.363Z,64.28
2022-10-02T02:16:34.891Z,64.18
2022-10-02T02:17:34.342Z,64.28
2022-10-02T02:18:34.323Z,64.28
2022-10-02T02:19:34.312Z,64.28
2022-10-02T02:20:34.298Z,64.28
2022-10-02T02:21:34.286Z,64.28
2022-10-02T02:22:34.271Z,64.28
2022-10-02T02:23:34.257Z,64.28
2022-10-02T02:24:34.268Z,64.28
2022-10-02T02:25:34.234Z,64.39
2022-10-02T02:26:34.528Z,64.28
2022-10-02T02:27:34.203Z,64.28
2022-10-02T02:28:34.192Z,64.39
2022-10-02T02:29:34.181Z,64.39
2022-10-02T02:30:34.166Z,64.39
2022-10-02T02:31:34.186Z,64.39
2022-10-02T02:32:34.142Z,64.39
2022-10-02T02:33:34.125Z,64.39
2022-10-02T02:34:34.113Z,64.39
2022-10-02T02:35:34.100Z,64.39
2022-10-02T02:36:34.586Z,64.39
2022-10-02T02:37:34.072Z,64.39
2022-10-02T02:38:34.063Z,64.39
2022-10-02T02:39:34.046Z,64.39
2022-10-02T02:40:34.059Z,64.39
2022-10-02T02:41:34.019Z,64.39
2022-10-02T02:42:34.008Z,64.39
2022-10-02T02:43:33.993Z,64.39
2022-10-02T02:44:33.981Z,64.39
2022-10-02T02:45:34.020Z,64.39
2022-10-02T02:46:34.299Z,64.39
2022-10-02T02:47:33.942Z,64.39
2022-10-02T02:48:33.929Z,64.39
2022-10-02T02:49:33.916Z,64.39
2022-10-02T02:50:33.902Z,64.39
2022-10-02T02:51:33.887Z,64.39
2022-10-02T02:52:33.876Z,64.39
2022-10-02T02:53:33.861Z,64.39
2022-10-02T02:54:33.849Z,64.39
2022-10-02T02:55:33.834Z,64.39
2022-10-02T02:56:34.245Z,64.39
2022-10-02T02:57:33.808Z,64.39
2022-10-02T02:58:33.800Z,64.39
2022-10-02T02:59:33.783Z,64.39
2022-10-02T03:00:33.770Z,64.39
2022-10-02T03:01:33.779Z,64.39
2022-10-02T03:02:33.830Z,64.39
2022-10-02T03:03:33.729Z,64.39
2022-10-02T03:04:33.717Z,64.39
2022-10-02T03:05:33.703Z,64.39
2022-10-02T03:06:34.077Z,64.39
2022-10-02T03:07:33.678Z,64.39
2022-10-02T03:08:33.665Z,64.39
2022-10-02T03:09:33.650Z,64.39
2022-10-02T03:10:33.637Z,64.39
2022-10-02T03:11:33.626Z,64.39
2022-10-02T03:12:33.638Z,64.39
2022-10-02T03:13:33.597Z,64.39
2022-10-02T03:14:33.587Z,64.39
2022-10-02T03:15:33.594Z,64.39
2022-10-02T03:16:34.028Z,64.39
2022-10-02T03:17:33.543Z,64.39
2022-10-02T03:18:33.529Z,64.39
2022-10-02T03:19:33.516Z,64.39
2022-10-02T03:20:33.502Z,64.39
2022-10-02T03:21:33.496Z,64.39
2022-10-02T03:22:33.476Z,64.39
2022-10-02T03:23:33.464Z,64.39
2022-10-02T03:24:33.451Z,64.39
2022-10-02T03:25:33.439Z,64.39
2022-10-02T03:26:33.661Z,64.39
2022-10-02T03:27:35.213Z,64.39
2022-10-02T03:28:54.238Z,64.39
2022-10-02T03:29:34.422Z,64.39
2022-10-02T03:30:33.373Z,64.39
2022-10-02T03:31:33.476Z,64.39
2022-10-02T03:32:33.344Z,64.28
2022-10-02T03:33:33.337Z,64.28
2022-10-02T03:34:33.341Z,64.28
2022-10-02T03:35:33.357Z,64.28
2022-10-02T03:36:33.526Z,64.18
2022-10-02T03:37:33.280Z,64.28
2022-10-02T03:38:33.265Z,64.28
2022-10-02T03:39:33.253Z,64.28
2022-10-02T03:40:33.237Z,64.28
2022-10-02T03:41:33.228Z,64.28
2022-10-02T03:42:33.216Z,64.28
2022-10-02T03:43:33.199Z,64.28
2022-10-02T03:44:33.213Z,64.28
2022-10-02T03:45:50.495Z,64.28
2022-10-02T03:46:34.571Z,64.28
2022-10-02T03:47:33.148Z,64.28
2022-10-02T03:48:33.134Z,64.28
2022-10-02T03:49:33.120Z,64.28
2022-10-02T03:50:36.418Z,64.28
2022-10-02T03:51:33.093Z,64.28
2022-10-02T03:52:33.079Z,64.28
2022-10-02T03:53:33.070Z,64.28
2022-10-02T03:54:33.053Z,64.28
2022-10-02T03:55:33.050Z,64.39
2022-10-02T03:56:33.162Z,64.39
2022-10-02T03:57:33.014Z,64.39
2022-10-02T03:58:33.003Z,64.39
2022-10-02T03:59:32.988Z,64.39
2022-10-02T04:00:32.998Z,64.39
2022-10-02T04:01:32.983Z,64.39
2022-10-02T04:02:32.946Z,64.39
2022-10-02T04:03:33.019Z,64.39
2022-10-02T04:04:32.921Z,64.39
2022-10-02T04:05:32.909Z,64.39
2022-10-02T04:06:33.135Z,64.39
2022-10-02T04:07:32.882Z,64.39
2022-10-02T04:08:32.866Z,64.39
2022-10-02T04:09:32.855Z,64.39
2022-10-02T04:10:32.843Z,64.39
2022-10-02T04:11:32.829Z,64.39
2022-10-02T04:12:32.815Z,64.39
2022-10-02T04:13:32.807Z,64.39
2022-10-02T04:14:32.789Z,64.39
2022-10-02T04:15:32.777Z,64.39
2022-10-02T04:16:32.932Z,64.39
2022-10-02T04:17:32.755Z,64.39
2022-10-02T04:18:32.737Z,64.48
2022-10-02T04:19:32.724Z,64.48
2022-10-02T04:20:32.711Z,64.48
2022-10-02T04:21:32.699Z,64.48
2022-10-02T04:22:32.683Z,64.39
2022-10-02T04:23:32.674Z,64.48
2022-10-02T04:24:32.658Z,64.39
2022-10-02T04:25:32.645Z,64.39
2022-10-02T04:26:32.631Z,64.39
2022-10-02T04:27:32.618Z,64.39
2022-10-02T04:28:32.604Z,64.39
2022-10-02T04:29:32.595Z,64.39
2022-10-02T04:30:32.577Z,64.39
2022-10-02T04:31:32.616Z,64.39
2022-10-02T04:32:32.579Z,64.39
2022-10-02T04:33:37.695Z,64.39
2022-10-02T04:34:32.525Z,64.39
2022-10-02T04:35:32.519Z,64.39
2022-10-02T04:36:32.499Z,64.39
2022-10-02T04:37:32.488Z,64.28
2022-10-02T04:38:32.472Z,64.28
2022-10-02T04:39:32.460Z,64.28
2022-10-02T04:40:32.445Z,64.28
2022-10-02T04:41:32.435Z,64.28
2022-10-02T04:42:32.419Z,64.28
2022-10-02T04:43:32.408Z,64.28
2022-10-02T04:44:32.392Z,64.28
2022-10-02T04:45:32.430Z,64.28
2022-10-02T04:46:32.446Z,64.28
2022-10-02T04:47:32.355Z,64.28
2022-10-02T04:48:32.363Z,64.28
2022-10-02T04:49:32.329Z,64.28
2022-10-02T04:50:32.317Z,64.28
2022-10-02T04:51:32.303Z,64.28
2022-10-02T04:52:32.287Z,64.28
2022-10-02T04:53:32.276Z,64.18
2022-10-02T04:54:32.260Z,64.28
2022-10-02T04:55:32.250Z,64.28
2022-10-02T04:56:32.238Z,64.28
2022-10-02T04:57:32.223Z,64.28
2022-10-02T04:58:32.207Z,64.28
2022-10-02T04:59:32.196Z,64.28
2022-10-02T05:00:32.246Z,64.28
2022-10-02T05:01:32.170Z,64.28
2022-10-02T05:02:32.155Z,64.28
2022-10-02T05:03:32.144Z,64.28
2022-10-02T05:04:32.159Z,64.28
2022-10-02T05:05:32.120Z,64.28
2022-10-02T05:06:32.105Z,64.28
2022-10-02T05:07:32.093Z,64.28
2022-10-02T05:08:32.075Z,64.28
2022-10-02T05:09:32.067Z,64.28
2022-10-02T05:10:32.048Z,64.28
2022-10-02T05:11:32.038Z,64.28
2022-10-02T05:12:32.029Z,64.28
2022-10-02T05:13:32.013Z,64.28
2022-10-02T05:14:31.996Z,64.28
2022-10-02T05:15:31.987Z,64.28
2022-10-02T05:17:06.924Z,64.28
2022-10-02T05:18:17.757Z,64.28
2022-10-02T05:19:06.898Z,64.28
2022-10-02T05:20:06.909Z,64.28
2022-10-02T05:21:06.875Z,64.28
2022-10-02T05:22:06.859Z,64.28
2022-10-02T05:23:06.846Z,64.28
2022-10-02T05:24:06.834Z,64.28
2022-10-02T05:25:06.823Z,64.28
2022-10-02T05:26:09.679Z,64.28
2022-10-02T05:27:07.832Z,64.28
2022-10-02T05:28:06.829Z,64.28
2022-10-02T05:29:06.775Z,64.28
2022-10-02T05:30:06.753Z,64.28
2022-10-02T05:31:06.817Z,64.28
2022-10-02T05:32:06.728Z,64.28
2022-10-02T05:33:06.719Z,64.28
2022-10-02T05:34:06.704Z,64.28
2022-10-02T05:35:06.690Z,64.28
2022-10-02T05:36:06.706Z,64.28
2022-10-02T05:37:06.665Z,64.28
2022-10-02T05:38:06.649Z,64.18
2022-10-02T05:39:06.648Z,64.18
2022-10-02T05:40:06.625Z,64.18
2022-10-02T05:41:06.613Z,64.28
2022-10-02T05:42:06.597Z,64.28
2022-10-02T05:43:06.585Z,64.28
2022-10-02T05:44:06.574Z,64.28
2022-10-02T05:45:06.565Z,64.28
2022-10-02T05:46:06.545Z,64.28
2022-10-02T05:47:06.597Z,64.28
2022-10-02T05:48:06.519Z,64.28
2022-10-02T05:49:06.507Z,64.28
2022-10-02T05:50:06.498Z,64.28
2022-10-02T05:51:06.481Z,64.28
2022-10-02T05:52:06.539Z,64.18
2022-10-02T05:53:06.456Z,64.28
2022-10-02T05:54:06.443Z,64.28
2022-10-02T05:55:06.428Z,64.28
2022-10-02T05:56:06.421Z,64.28
2022-10-02T05:57:06.403Z,64.18
2022-10-02T05:58:06.390Z,64.18
2022-10-02T05:59:06.376Z,64.18
2022-10-02T06:00:06.388Z,64.18
2022-10-02T06:01:06.505Z,64.18
2022-10-02T06:02:06.409Z,64.18
2022-10-02T06:03:06.324Z,64.18
2022-10-02T06:04:06.317Z,64.18
2022-10-02T06:05:06.300Z,64.18
2022-10-02T06:06:06.287Z,64.18
2022-10-02T06:07:06.274Z,64.08
2022-10-02T06:08:06.409Z,64.08
2022-10-02T06:09:06.246Z,64.08
2022-10-02T06:10:06.236Z,64.08
2022-10-02T06:11:06.223Z,64.08
2022-10-02T06:12:06.211Z,64.08
2022-10-02T06:13:06.194Z,64.08
2022-10-02T06:14:06.183Z,64.08
2022-10-02T06:15:06.169Z,64.08
2022-10-02T06:16:06.181Z,64.08
2022-10-02T06:17:06.143Z,64.08
2022-10-02T06:18:06.131Z,64.18
2022-10-02T06:19:06.116Z,64.08
2022-10-02T06:20:06.107Z,64.18
2022-10-02T06:21:06.091Z,64.08
2022-10-02T06:22:06.079Z,64.18
2022-10-02T06:23:06.067Z,64.08
2022-10-02T06:24:06.077Z,64.08
2022-10-02T06:25:06.038Z,63.98
2022-10-02T06:26:06.029Z,64.08
2022-10-02T06:27:06.018Z,64.08
2022-10-02T06:28:06.061Z,63.98
2022-10-02T06:29:05.987Z,63.98
2022-10-02T06:30:05.976Z,63.98
2022-10-02T06:31:06.055Z,64.08
2022-10-02T06:32:05.950Z,64.28
2022-10-02T06:33:05.934Z,64.08
2022-10-02T06:34:05.923Z,63.98
2022-10-02T06:35:05.909Z,64.18
2022-10-02T06:36:05.900Z,64.39
2022-10-02T06:37:05.883Z,64.28
2022-10-02T06:38:05.873Z,64.18
2022-10-02T06:39:05.856Z,64.39
2022-10-02T06:40:05.929Z,64.48
2022-10-02T06:41:05.832Z,64.28
2022-10-02T06:42:05.829Z,64.28
2022-10-02T06:43:05.807Z,64.28
2022-10-02T06:44:05.793Z,64.39
2022-10-02T06:45:05.780Z,64.28
2022-10-02T06:46:05.862Z,64.69
2022-10-02T06:47:05.754Z,64.59
2022-10-02T06:48:05.748Z,64.59
2022-10-02T06:49:05.737Z,64.69
2022-10-02T06:50:05.719Z,64.48
2022-10-02T06:51:05.702Z,64.48
2022-10-02T06:52:05.689Z,64.48
2022-10-02T06:53:05.675Z,64.39
2022-10-02T06:54:05.664Z,64.28
2022-10-02T06:55:05.651Z,64.48
2022-10-02T06:56:05.660Z,64.48
2022-10-02T06:57:05.624Z,64.48
2022-10-02T06:58:05.614Z,64.48
2022-10-02T06:59:05.598Z,64.59
2022-10-02T07:00:05.587Z,64.69
2022-10-02T07:01:05.625Z,64.69
2022-10-02T07:02:05.597Z,64.59
2022-10-02T07:03:05.546Z,64.48
2022-10-02T07:04:05.537Z,64.59
2022-10-02T07:05:05.520Z,64.48
2022-10-02T07:06:05.510Z,64.79
2022-10-02T07:07:05.494Z,64.89
2022-10-02T07:08:05.484Z,64.79
2022-10-02T07:09:05.469Z,64.89
2022-10-02T07:10:05.461Z,65.00
2022-10-02T07:11:05.444Z,65.00
2022-10-02T07:12:05.454Z,65.20
2022-10-02T07:13:05.417Z,65.00
2022-10-02T07:14:05.406Z,64.89
2022-10-02T07:15:05.391Z,65.10
2022-10-02T07:16:05.442Z,65.10
2022-10-02T07:17:05.366Z,65.10
2022-10-02T07:18:05.353Z,65.20
2022-10-02T07:19:05.338Z,65.00
2022-10-02T07:20:05.328Z,64.89
2022-10-02T07:21:05.317Z,64.89
2022-10-02T07:22:20.233Z,64.89
2022-10-02T07:23:07.810Z,64.89
2022-10-02T07:24:05.276Z,64.89
2022-10-02T07:25:05.260Z,64.89
2022-10-02T07:26:05.251Z,64.79
2022-10-02T07:27:05.234Z,64.89
2022-10-02T07:28:05.316Z,64.79
2022-10-02T07:29:05.209Z,64.89
2022-10-02T07:30:05.200Z,64.89
2022-10-02T07:31:05.302Z,64.79
2022-10-02T07:32:05.174Z,64.79
2022-10-02T07:33:05.167Z,65.00
2022-10-02T07:34:05.145Z,65.00
2022-10-02T07:35:05.132Z,64.79
2022-10-02T07:36:05.119Z,64.79
2022-10-02T07:37:05.106Z,65.00
2022-10-02T07:38:05.094Z,64.89
2022-10-02T07:39:05.079Z,65.00
2022-10-02T07:40:05.067Z,65.10
2022-10-02T07:41:05.053Z,65.10
2022-10-02T07:42:05.042Z,65.00
2022-10-02T07:43:05.027Z,65.00
2022-10-02T07:44:05.039Z,65.10
2022-10-02T07:45:05.002Z,65.00
2022-10-02T07:46:07.336Z,65.00
2022-10-02T07:47:04.984Z,65.20
2022-10-02T07:48:45.923Z,65.06
2022-10-02T07:49:39.903Z,65.10
2022-10-02T07:50:39.892Z,65.10
2022-10-02T07:51:39.877Z,65.06
2022-10-02T07:52:39.866Z,65.06
2022-10-02T07:53:39.856Z,65.06
2022-10-02T07:54:39.840Z,65.06
2022-10-02T07:55:39.824Z,64.97
2022-10-02T07:56:39.813Z,64.86
2022-10-02T07:57:39.797Z,64.66
2022-10-02T07:58:39.791Z,64.66
2022-10-02T07:59:39.798Z,64.66
2022-10-02T08:00:39.779Z,64.56
2022-10-02T08:01:39.746Z,64.56
2022-10-02T08:02:39.737Z,64.56
2022-10-02T08:03:39.844Z,64.56
2022-10-02T08:04:39.708Z,64.56
2022-10-02T08:05:39.694Z,64.56
2022-10-02T08:06:39.825Z,64.66
2022-10-02T08:07:39.667Z,64.66
2022-10-02T08:08:39.656Z,64.66
2022-10-02T08:09:39.642Z,64.86
2022-10-02T08:10:39.631Z,65.06
2022-10-02T08:11:39.617Z,64.86
2022-10-02T08:12:39.607Z,64.97
2022-10-02T08:13:39.592Z,65.06
2022-10-02T08:14:39.581Z,65.06
2022-10-02T08:15:39.590Z,65.17
2022-10-02T08:16:40.024Z,65.17
2022-10-02T08:17:39.538Z,65.17
2022-10-02T08:18:39.529Z,65.27
2022-10-02T08:19:39.516Z,65.06
2022-10-02T08:20:39.501Z,65.06
2022-10-02T08:21:39.488Z,65.06
2022-10-02T08:22:39.473Z,65.06
2022-10-02T08:23:39.463Z,64.97
2022-10-02T08:24:39.447Z,64.86
2022-10-02T08:25:39.435Z,64.86
2022-10-02T08:26:39.707Z,64.76
2022-10-02T08:27:39.413Z,64.97
2022-10-02T08:28:39.398Z,64.86
2022-10-02T08:29:39.483Z,65.06
2022-10-02T08:30:39.370Z,64.97
2022-10-02T08:31:39.435Z,65.06
2022-10-02T08:32:39.343Z,64.86
2022-10-02T08:33:39.335Z,64.97
2022-10-02T08:34:39.320Z,64.97
2022-10-02T08:35:39.306Z,64.97
2022-10-02T08:36:39.626Z,64.97
2022-10-02T08:37:39.363Z,64.86
2022-10-02T08:38:39.266Z,65.06
2022-10-02T08:39:39.253Z,65.06
2022-10-02T08:40:39.239Z,65.06
2022-10-02T08:41:39.229Z,65.06
2022-10-02T08:42:39.217Z,65.17
2022-10-02T08:43:39.203Z,65.17
2022-10-02T08:44:39.188Z,65.17
2022-10-02T08:45:39.226Z,65.17
2022-10-02T08:46:39.546Z,65.17
2022-10-02T08:47:39.177Z,65.17
2022-10-02T08:48:39.135Z,65.47
2022-10-02T08:49:39.124Z,65.27
2022-10-02T08:50:39.109Z,65.47
2022-10-02T08:51:39.098Z,65.27
2022-10-02T08:52:39.084Z,65.37
2022-10-02T08:53:39.073Z,65.37
2022-10-02T08:54:39.059Z,65.27
2022-10-02T08:55:39.047Z,65.17
2022-10-02T08:56:39.292Z,65.27
2022-10-02T08:57:39.022Z,65.47
2022-10-02T08:58:39.005Z,65.37
2022-10-02T08:59:38.994Z,65.37
2022-10-02T09:00:39.026Z,65.27
2022-10-02T09:01:38.972Z,65.27
2022-10-02T09:02:38.996Z,65.78
2022-10-02T09:03:38.967Z,65.37
2022-10-02T09:04:38.928Z,65.17
2022-10-02T09:05:38.916Z,65.27
2022-10-02T09:06:39.329Z,65.27
2022-10-02T09:07:38.890Z,65.17
2022-10-02T09:08:38.876Z,65.27
2022-10-02T09:09:38.865Z,65.17
2022-10-02T09:10:38.850Z,65.06
2022-10-02T09:11:38.840Z,65.06
2022-10-02T09:12:38.825Z,65.06
2022-10-02T09:13:38.813Z,65.06
2022-10-02T09:14:38.798Z,65.06
2022-10-02T09:15:38.787Z,65.06
2022-10-02T09:16:39.140Z,65.17
2022-10-02T09:17:38.764Z,65.06
2022-10-02T09:18:38.745Z,65.17
2022-10-02T09:19:38.765Z,64.97
2022-10-02T09:20:38.720Z,65.06
2022-10-02T09:21:38.709Z,65.17
2022-10-02T09:22:38.693Z,64.97
2022-10-02T09:23:38.682Z,64.97
2022-10-02T09:24:38.668Z,65.06
2022-10-02T09:25:38.657Z,64.86
2022-10-02T09:26:39.047Z,64.97
2022-10-02T09:27:38.629Z,65.06
2022-10-02T09:28:38.615Z,65.06
2022-10-02T09:29:38.605Z,64.97
2022-10-02T09:30:38.589Z,64.97
2022-10-02T09:31:38.649Z,64.97
2022-10-02T09:32:38.563Z,65.06
2022-10-02T09:33:38.552Z,65.17
2022-10-02T09:34:38.537Z,64.97
2022-10-02T09:35:38.551Z,65.06
2022-10-02T09:36:38.807Z,65.06
2022-10-02T09:37:38.499Z,65.27
2022-10-02T09:38:39.349Z,65.27
2022-10-02T09:39:38.473Z,65.27
2022-10-02T09:40:38.459Z,65.17
2022-10-02T09:41:38.448Z,65.06
2022-10-02T09:42:38.434Z,65.27
2022-10-02T09:43:38.422Z,65.06
2022-10-02T09:44:38.407Z,65.17
2022-10-02T09:45:38.467Z,65.37
2022-10-02T09:46:38.716Z,65.06
2022-10-02T09:47:38.370Z,65.37
2022-10-02T09:48:38.355Z,65.47
2022-10-02T09:49:38.346Z,65.27
2022-10-02T09:50:38.329Z,65.88
2022-10-02T09:51:38.344Z,66.08
2022-10-02T09:52:42.670Z,65.78
2022-10-02T09:53:38.290Z,66.29
2022-10-02T09:54:38.278Z,65.88
2022-10-02T09:55:38.265Z,66.08
2022-10-02T09:56:38.660Z,66.18
2022-10-02T09:57:38.239Z,66.59
2022-10-02T09:58:38.224Z,66.99
2022-10-02T09:59:38.213Z,66.99
2022-10-02T10:00:38.200Z,67.10
2022-10-02T10:01:38.185Z,66.49
2022-10-02T10:02:38.260Z,66.49
2022-10-02T10:03:38.166Z,66.38
2022-10-02T10:05:04.086Z,66.38
2022-10-02T10:05:39.175Z,66.08
2022-10-02T10:06:38.510Z,66.29
2022-10-02T10:07:38.131Z,66.08
2022-10-02T10:08:38.094Z,66.49
2022-10-02T10:09:38.084Z,65.78
2022-10-02T10:10:38.067Z,66.38
2022-10-02T10:11:38.628Z,66.18
2022-10-02T10:12:38.043Z,66.69
2022-10-02T10:13:38.032Z,66.69
2022-10-02T10:14:38.015Z,66.79
2022-10-02T10:15:38.005Z,66.69
2022-10-02T10:16:38.022Z,66.38
2022-10-02T10:17:37.981Z,66.59
2022-10-02T10:18:37.966Z,66.38
2022-10-02T10:19:37.953Z,66.38
2022-10-02T10:20:37.938Z,66.08
2022-10-02T10:21:38.245Z,65.98
2022-10-02T10:22:37.913Z,66.15
2022-10-02T10:23:37.928Z,66.18
2022-10-02T10:24:37.887Z,66.05
2022-10-02T10:25:37.875Z,66.35
2022-10-02T10:26:37.860Z,66.15
2022-10-02T10:27:37.849Z,65.95
2022-10-02T10:28:37.836Z,66.46
2022-10-02T10:29:37.823Z,66.25
2022-10-02T10:30:37.810Z,65.85
2022-10-02T10:31:38.096Z,65.64
2022-10-02T10:32:37.783Z,66.05
2022-10-02T10:33:37.771Z,66.66
2022-10-02T10:34:37.757Z,66.46
2022-10-02T10:35:37.745Z,66.56
2022-10-02T10:36:37.732Z,66.56
2022-10-02T10:37:37.721Z,66.76
2022-10-02T10:38:37.706Z,66.76
2022-10-02T10:39:37.719Z,66.66
2022-10-02T10:40:37.678Z,66.96
2022-10-02T10:41:38.179Z,66.86
2022-10-02T10:42:50.144Z,67.07
2022-10-02T10:43:38.682Z,67.16
2022-10-02T10:44:37.629Z,67.16
2022-10-02T10:45:37.702Z,66.76
2022-10-02T10:46:37.602Z,66.86
2022-10-02T10:47:37.605Z,66.86
2022-10-02T10:48:37.575Z,67.16
2022-10-02T10:49:37.564Z,67.07
2022-10-02T10:50:37.548Z,67.07
2022-10-02T10:52:12.491Z,67.16
2022-10-02T10:53:12.476Z,67.27
2022-10-02T10:54:12.465Z,67.37
2022-10-02T10:55:12.473Z,67.47
2022-10-02T10:56:12.439Z,67.57
2022-10-02T10:57:12.427Z,67.37
2022-10-02T10:58:12.413Z,67.16
2022-10-02T10:59:12.397Z,67.47
2022-10-02T11:00:12.390Z,67.57
2022-10-02T11:01:12.428Z,67.16
2022-10-02T11:02:12.431Z,67.16
2022-10-02T11:03:12.346Z,67.27
2022-10-02T11:04:12.339Z,67.37
2022-10-02T11:05:12.470Z,67.27
2022-10-02T11:06:12.308Z,67.16
2022-10-02T11:07:12.295Z,67.07
2022-10-02T11:08:12.283Z,67.37
2022-10-02T11:09:12.268Z,67.16
2022-10-02T11:10:12.256Z,67.27
2022-10-02T11:11:12.266Z,67.27
2022-10-02T11:12:12.233Z,67.27
2022-10-02T11:13:12.216Z,67.37
2022-10-02T11:14:12.206Z,67.57
2022-10-02T11:15:12.191Z,67.37
2022-10-02T11:16:12.210Z,67.98
2022-10-02T11:17:12.164Z,67.77
2022-10-02T11:18:12.154Z,67.67
2022-10-02T11:19:12.138Z,67.67
2022-10-02T11:20:12.128Z,67.77
2022-10-02T11:21:12.115Z,67.77
2022-10-02T11:22:12.101Z,67.77
2022-10-02T11:23:12.086Z,67.77
2022-10-02T11:24:12.076Z,67.77
2022-10-02T11:25:13.239Z,67.88
2022-10-02T11:26:12.046Z,67.88
2022-10-02T11:27:12.057Z,67.98
2022-10-02T11:28:12.080Z,67.98
2022-10-02T11:29:12.014Z,68.38
2022-10-02T11:30:11.997Z,67.88
2022-10-02T11:31:12.031Z,67.77
2022-10-02T11:32:11.969Z,67.88
2022-10-02T11:33:11.971Z,67.77
2022-10-02T11:34:11.944Z,67.77
2022-10-02T11:35:11.932Z,67.88
2022-10-02T11:36:11.916Z,67.98
2022-10-02T11:37:11.906Z,67.88
2022-10-02T11:38:11.893Z,67.98
2022-10-02T11:39:11.880Z,67.98
2022-10-02T11:40:11.864Z,67.88
2022-10-02T11:41:11.854Z,67.77
2022-10-02T11:42:11.838Z,67.67
2022-10-02T11:43:11.851Z,67.67
2022-10-02T11:44:11.812Z,67.77
2022-10-02T11:45:11.800Z,67.98
2022-10-02T11:46:11.837Z,67.67
2022-10-02T11:47:11.775Z,67.67
2022-10-02T11:48:11.761Z,67.57
2022-10-02T11:49:11.749Z,67.57
2022-10-02T11:50:11.736Z,67.67
2022-10-02T11:51:11.722Z,67.37
2022-10-02T11:52:11.708Z,67.37
2022-10-02T11:53:11.701Z,67.37
2022-10-02T11:54:11.685Z,67.47
2022-10-02T11:55:11.671Z,67.37
2022-10-02T11:56:11.656Z,67.37
2022-10-02T11:57:11.650Z,67.27
2022-10-02T11:58:11.630Z,67.47
2022-10-02T11:59:11.642Z,67.88
2022-10-02T12:00:11.605Z,67.47
2022-10-02T12:01:11.593Z,67.27
2022-10-02T12:02:16.260Z,67.27
2022-10-02T12:03:11.651Z,67.37
2022-10-02T12:04:11.551Z,67.47
2022-10-02T12:05:11.540Z,67.67
2022-10-02T12:06:11.526Z,67.47
2022-10-02T12:07:11.512Z,67.37
2022-10-02T12:08:11.499Z,67.57
2022-10-02T12:09:11.505Z,67.47
2022-10-02T12:10:11.478Z,67.57
2022-10-02T12:11:11.492Z,67.37
2022-10-02T12:12:11.446Z,67.57
2022-10-02T12:13:11.435Z,67.67
2022-10-02T12:14:11.421Z,67.67
2022-10-02T12:15:11.432Z,67.57
2022-10-02T12:16:11.460Z,67.67
2022-10-02T12:17:11.387Z,67.47
2022-10-02T12:18:11.368Z,67.77
2022-10-02T12:19:11.356Z,67.67
2022-10-02T12:20:11.343Z,67.88
2022-10-02T12:21:11.331Z,67.37
2022-10-02T12:22:11.316Z,67.37
2022-10-02T12:23:11.306Z,67.27
2022-10-02T12:24:11.292Z,67.37
2022-10-02T12:25:11.279Z,67.16
2022-10-02T12:26:11.264Z,67.16
2022-10-02T12:27:11.254Z,66.86
2022-10-02T12:28:11.341Z,66.93
2022-10-02T12:29:11.231Z,66.76
2022-10-02T12:30:11.213Z,66.86
2022-10-02T12:31:11.224Z,66.76
2022-10-02T12:32:11.273Z,66.76
2022-10-02T12:33:11.175Z,66.86
2022-10-02T12:34:11.160Z,66.86
2022-10-02T12:35:11.149Z,66.76
2022-10-02T12:36:11.135Z,66.93
2022-10-02T12:37:11.122Z,66.76
2022-10-02T12:38:11.107Z,66.86
2022-10-02T12:39:11.095Z,66.73
2022-10-02T12:40:11.082Z,66.35
2022-10-02T12:41:11.071Z,66.56
2022-10-02T12:42:11.056Z,66.46
2022-10-02T12:43:11.043Z,66.56
2022-10-02T12:44:11.029Z,66.35
2022-10-02T12:45:12.035Z,66.52
2022-10-02T12:46:11.034Z,66.56
2022-10-02T12:47:11.016Z,66.66
2022-10-02T12:48:10.977Z,67.34
2022-10-02T12:49:10.965Z,67.07
2022-10-02T12:50:10.952Z,66.73
2022-10-02T12:51:10.938Z,66.56
2022-10-02T12:52:10.926Z,66.43
2022-10-02T12:53:10.914Z,66.56
2022-10-02T12:54:10.900Z,66.86